Terminal Aerodrome Forecast
Issued by NWS

Home | Current Version | Previous Version | Text Only | Print | Product List | Glossary On
Versions: 1 2 3 4 5 6 7 8 9 10 11 12 13 14 15 16 17 18 19 20 21 22 23 24 25 26 27 28 29 30 31 32 33 34
000
FTUS43 KSGF 212133 AAC
TAFJLN
TAF AMD
KJLN 212133Z 2122/2218 04010KT P6SM OVC015
     FM220000 05012KT 4SM -FZRA BR OVC015
     FM220700 06010KT 4SM BR OVC009 PROB30 2207/2210 3SM -FZRA BR
      OVC007=

USA.gov is the U.S. government's official web portal to all federal, state and local government web resources and services.